Seale, Alabama
Current Conditions -  °F | °C
As of 2:48 AM on Thursday 23 Oct 2014 (Local Time) from KLSF Reporting Station
Haze Haze  
Wind Chill: 43°   Ceiling: Unl
Heat Index: 43°   Visibility: 1.7mi
Dew Point: 43°   Wind: 0mph
Humidity: 100%   Direction: NA
Pressure: 30.08"   Gusts: NA
Location:  32.3°N, 85.17°W
Report Text: KLSF 230748Z AUTO 00000KT 1 3/4SM R33/3000FT BR CLR 06/06 A3008 RMK AO2 VIS 1V2
Loading
Personal Weather Stations






























Interactive Weather Map
Tropical Storm Tracking
New forecast layout! Learn more

10-Day Weather Forecast

Advertisements
Track Severe Weather on mobile